Time;durP1;ratioP1;P1;durP2;ratioP2;P2;SDS_P1;SDS_P2;PMS_P1;PMS_P2;Temp;Humidity;BMP_temperature;BMP_pressure;BME280_temperature;BME280_humidity;BME280_pressure;Samples;Min_cycle;Max_cycle;Signal;HPM_P1;HPM_P2
2022/05/18 00:01:32;;;;;;;3.08;2.80;;;;;;;;;;5055559;28;20396;-90
2022/05/18 00:03:58;;;;;;;2.85;2.65;;;;;;;;;;5055317;28;20850;-89
2022/05/18 00:06:24;;;;;;;3.85;2.92;;;;;;;;;;5054860;28;20373;-89
2022/05/18 00:08:50;;;;;;;4.18;3.00;;;;;;;;;;5037506;28;20390;-88
2022/05/18 00:11:18;;;;;;;3.03;2.72;;;;;;;;;;5035231;28;20398;-90
2022/05/18 00:13:45;;;;;;;3.40;2.60;;;;;;;;;;5035186;28;20462;-88
2022/05/18 00:16:11;;;;;;;3.47;3.03;;;;;;;;;;5035372;28;20462;-89
2022/05/18 00:18:38;;;;;;;3.90;2.63;;;;;;;;;;5035294;28;20387;-89
2022/05/18 00:21:04;;;;;;;3.00;2.70;;;;;;;;;;5035362;28;20870;-90
2022/05/18 00:23:30;;;;;;;3.45;3.05;;;;;;;;;;5035102;28;20387;-89
2022/05/18 00:25:56;;;;;;;3.50;2.85;;;;;;;;;;5035632;28;20375;-88
2022/05/18 00:28:22;;;;;;;4.28;3.13;;;;;;;;;;5035088;28;20387;-88
2022/05/18 00:30:48;;;;;;;3.40;3.10;;;;;;;;;;5034879;28;20880;-88
2022/05/18 00:33:15;;;;;;;5.10;2.75;;;;;;;;;;5034865;28;20453;-90
2022/05/18 00:35:41;;;;;;;3.20;2.92;;;;;;;;;;5034914;28;20381;-89
2022/05/18 00:38:08;;;;;;;3.00;2.80;;;;;;;;;;5035215;28;20376;-88
2022/05/18 00:40:34;;;;;;;3.30;3.00;;;;;;;;;;5034763;28;20385;-89
2022/05/18 00:43:00;;;;;;;3.30;3.00;;;;;;;;;;5034944;28;20394;-89
2022/05/18 00:45:27;;;;;;;3.53;2.85;;;;;;;;;;5016991;28;20394;-88
2022/05/18 00:47:53;;;;;;;3.78;2.80;;;;;;;;;;5034757;28;20764;-88
2022/05/18 00:50:22;;;;;;;3.00;2.70;;;;;;;;;;5017068;28;20395;-89
2022/05/18 00:52:51;;;;;;;4.03;2.92;;;;;;;;;;5034527;28;20371;-89
2022/05/18 00:55:19;;;;;;;3.08;2.78;;;;;;;;;;5033839;28;20454;-89
2022/05/18 00:57:48;;;;;;;3.75;3.20;;;;;;;;;;5034825;28;20468;-88
2022/05/18 01:00:15;;;;;;;4.13;3.15;;;;;;;;;;5034349;28;20402;-89
2022/05/18 01:02:45;;;;;;;3.60;3.03;;;;;;;;;;5034357;28;20379;-90
2022/05/18 01:05:14;;;;;;;4.30;3.10;;;;;;;;;;5034196;28;20399;-91
2022/05/18 01:07:43;;;;;;;4.90;2.90;;;;;;;;;;5034407;28;20380;-88
2022/05/18 01:10:09;;;;;;;4.70;3.15;;;;;;;;;;5034302;28;20437;-88
2022/05/18 01:12:35;;;;;;;4.75;2.92;;;;;;;;;;5034140;28;20466;-91
2022/05/18 01:15:07;;;;;;;3.10;2.80;;;;;;;;;;5042847;28;20451;-89
2022/05/18 01:17:34;;;;;;;3.08;2.83;;;;;;;;;;5054146;28;20869;-89
2022/05/18 01:20:02;;;;;;;3.47;2.80;;;;;;;;;;5053893;28;20373;-90
2022/05/18 01:22:46;;;;;;;3.13;2.75;;;;;;;;;;5054582;28;20473;-88
2022/05/18 01:25:24;;;;;;;2.70;2.50;;;;;;;;;;5053928;28;20374;-88
2022/05/18 01:27:51;;;;;;;3.22;2.90;;;;;;;;;;5054013;28;20700;-89
2022/05/18 01:30:17;;;;;;;4.40;2.95;;;;;;;;;;5053662;28;20879;-90
2022/05/18 01:32:45;;;;;;;3.08;2.78;;;;;;;;;;5054104;28;20381;-89
2022/05/18 01:35:12;;;;;;;3.60;2.80;;;;;;;;;;5053770;28;20381;-89
2022/05/18 01:37:38;;;;;;;3.17;2.65;;;;;;;;;;5053621;28;20409;-89
2022/05/18 01:40:08;;;;;;;3.90;3.00;;;;;;;;;;5053534;28;20381;-89
2022/05/18 01:42:33;;;;;;;4.32;3.00;;;;;;;;;;5053631;28;20370;-89
2022/05/18 01:44:59;;;;;;;3.08;2.80;;;;;;;;;;5056000;28;20384;-89
2022/05/18 01:47:25;;;;;;;4.25;3.03;;;;;;;;;;5053420;28;20384;-89
2022/05/18 01:49:53;;;;;;;4.22;2.90;;;;;;;;;;5053321;28;20384;-89
2022/05/18 01:52:19;;;;;;;4.13;2.80;;;;;;;;;;5038771;28;20768;-89
2022/05/18 01:54:47;;;;;;;4.35;2.88;;;;;;;;;;5033371;28;20391;-89
2022/05/18 01:57:14;;;;;;;3.67;3.30;;;;;;;;;;5033529;28;20429;-89
2022/05/18 01:59:40;;;;;;;4.73;2.97;;;;;;;;;;5033266;28;20390;-89
2022/05/18 02:02:07;;;;;;;3.42;2.83;;;;;;;;;;5036035;28;20454;-88
2022/05/18 02:04:34;;;;;;;3.80;2.80;;;;;;;;;;5033259;28;20791;-88
2022/05/18 02:07:01;;;;;;;3.78;2.80;;;;;;;;;;5032358;28;20398;-87
2022/05/18 02:09:27;;;;;;;3.75;2.97;;;;;;;;;;5033122;28;20736;-89
2022/05/18 02:11:53;;;;;;;4.07;3.30;;;;;;;;;;5033130;28;20415;-89
2022/05/18 02:14:20;;;;;;;4.20;3.20;;;;;;;;;;5032962;28;20375;-88
2022/05/18 02:16:46;;;;;;;3.10;2.80;;;;;;;;;;5033045;28;20386;-89
2022/05/18 02:19:12;;;;;;;3.45;3.15;;;;;;;;;;5032993;28;20410;-90
2022/05/18 02:21:38;;;;;;;3.60;3.30;;;;;;;;;;5033053;28;20504;-89
2022/05/18 02:24:04;;;;;;;3.60;2.90;;;;;;;;;;5032725;28;20916;-89
2022/05/18 02:26:30;;;;;;;3.67;2.97;;;;;;;;;;5032795;28;20390;-89
2022/05/18 02:28:56;;;;;;;3.28;2.95;;;;;;;;;;5015125;28;20756;-90
2022/05/18 02:31:22;;;;;;;3.28;2.97;;;;;;;;;;5032762;28;20418;-90
2022/05/18 02:33:48;;;;;;;3.17;2.88;;;;;;;;;;5032601;28;20872;-89
2022/05/18 02:36:15;;;;;;;3.17;2.97;;;;;;;;;;5014902;28;20891;-90
2022/05/18 02:38:42;;;;;;;4.40;2.95;;;;;;;;;;5032757;28;20482;-88
2022/05/18 02:41:08;;;;;;;2.95;2.75;;;;;;;;;;5032893;28;20389;-87
2022/05/18 02:43:38;;;;;;;3.20;2.90;;;;;;;;;;5032515;28;20749;-89
2022/05/18 02:46:06;;;;;;;3.88;2.80;;;;;;;;;;5032584;28;20394;-89
2022/05/18 02:48:32;;;;;;;5.30;3.05;;;;;;;;;;5032552;28;20383;-89
2022/05/18 02:50:58;;;;;;;3.63;2.80;;;;;;;;;;5032440;28;20793;-89
2022/05/18 02:53:24;;;;;;;3.20;2.90;;;;;;;;;;5032391;28;20417;-88
2022/05/18 02:56:08;;;;;;;3.47;3.17;;;;;;;;;;5032282;28;20860;-88
2022/05/18 02:58:34;;;;;;;3.83;3.42;;;;;;;;;;5032774;28;20466;-89
2022/05/18 03:01:01;;;;;;;3.50;3.20;;;;;;;;;;5032402;28;20458;-89
2022/05/18 03:03:27;;;;;;;4.78;2.97;;;;;;;;;;5032316;28;20382;-88
2022/05/18 03:05:53;;;;;;;3.92;3.00;;;;;;;;;;5032078;28;20430;-88
2022/05/18 03:08:19;;;;;;;5.15;3.10;;;;;;;;;;5032351;28;20387;-89
2022/05/18 03:10:45;;;;;;;3.28;2.88;;;;;;;;;;5032302;28;20457;-89
2022/05/18 03:13:11;;;;;;;5.32;3.08;;;;;;;;;;5032089;28;20376;-90
2022/05/18 03:15:37;;;;;;;3.40;3.10;;;;;;;;;;5032134;28;20383;-89
2022/05/18 03:18:03;;;;;;;4.93;3.20;;;;;;;;;;5051481;28;20416;-90
2022/05/18 03:25:58;;;;;;;3.63;2.90;;;;;;;;;;5056522;28;20377;-89
2022/05/18 03:28:24;;;;;;;3.70;3.38;;;;;;;;;;5056180;28;20378;-89
2022/05/18 03:30:50;;;;;;;4.13;3.20;;;;;;;;;;5055857;28;20420;-89
2022/05/18 03:33:16;;;;;;;5.17;3.70;;;;;;;;;;5056083;28;20385;-87
2022/05/18 03:35:42;;;;;;;3.65;3.30;;;;;;;;;;5056029;28;20389;-90
2022/05/18 03:38:08;;;;;;;4.00;3.65;;;;;;;;;;5055989;28;20882;-89
2022/05/18 03:40:37;;;;;;;4.70;3.22;;;;;;;;;;5056052;28;20374;-89
2022/05/18 03:43:04;;;;;;;4.30;3.17;;;;;;;;;;5055600;28;20377;-90
2022/05/18 03:45:30;;;;;;;3.95;3.55;;;;;;;;;;5058246;28;20381;-89
2022/05/18 03:47:56;;;;;;;3.50;3.20;;;;;;;;;;5055944;28;20456;-89
2022/05/18 03:50:22;;;;;;;3.70;3.38;;;;;;;;;;5037694;28;20436;-89
2022/05/18 03:52:49;;;;;;;4.47;3.93;;;;;;;;;;5055519;28;20377;-88
2022/05/18 03:55:15;;;;;;;4.00;3.60;;;;;;;;;;5055569;28;20421;-89
2022/05/18 03:57:41;;;;;;;3.97;3.67;;;;;;;;;;5050395;28;20461;-89
2022/05/18 04:00:07;;;;;;;3.77;3.37;;;;;;;;;;5035608;28;20784;-88
2022/05/18 04:02:34;;;;;;;3.95;3.60;;;;;;;;;;5035452;28;20487;-88
2022/05/18 04:05:00;;;;;;;3.78;3.47;;;;;;;;;;5036375;28;20476;-88
2022/05/18 04:07:26;;;;;;;3.88;3.53;;;;;;;;;;5054208;28;20381;-89
2022/05/18 04:09:52;;;;;;;4.00;3.70;;;;;;;;;;5055649;28;20423;-89
2022/05/18 04:12:18;;;;;;;4.22;3.83;;;;;;;;;;5055113;28;20424;-88
2022/05/18 04:14:44;;;;;;;3.95;3.65;;;;;;;;;;5055200;28;20401;-88
2022/05/18 04:17:10;;;;;;;4.28;3.63;;;;;;;;;;5055476;28;20413;-88
2022/05/18 04:19:36;;;;;;;4.65;4.25;;;;;;;;;;5055044;28;20460;-88
2022/05/18 04:22:02;;;;;;;5.17;3.67;;;;;;;;;;5055000;28;20381;-88
2022/05/18 04:24:28;;;;;;;4.40;3.65;;;;;;;;;;5054989;28;20843;-88
2022/05/18 04:26:54;;;;;;;4.68;4.25;;;;;;;;;;5037114;28;20819;-87
2022/05/18 04:29:20;;;;;;;4.32;3.92;;;;;;;;;;5053888;28;20425;-88
2022/05/18 04:31:46;;;;;;;4.47;4.00;;;;;;;;;;5054824;28;20528;-88
2022/05/18 04:34:12;;;;;;;4.15;3.78;;;;;;;;;;5054860;28;20394;-88
2022/05/18 04:36:38;;;;;;;4.30;3.92;;;;;;;;;;5054884;28;20378;-88
2022/05/18 04:39:04;;;;;;;4.80;4.30;;;;;;;;;;5054622;28;20381;-87
2022/05/18 04:41:30;;;;;;;4.65;4.18;;;;;;;;;;5054735;28;20528;-90
2022/05/18 04:43:56;;;;;;;4.45;4.10;;;;;;;;;;5054657;28;20386;-90
2022/05/18 04:46:22;;;;;;;4.45;3.95;;;;;;;;;;5054522;28;20399;-88
2022/05/18 04:48:48;;;;;;;4.57;4.13;;;;;;;;;;5054528;28;20886;-89
2022/05/18 04:51:14;;;;;;;4.28;3.90;;;;;;;;;;5054685;28;20455;-88
2022/05/18 04:53:40;;;;;;;4.40;4.10;;;;;;;;;;5054613;28;20374;-88
2022/05/18 04:56:06;;;;;;;4.75;4.32;;;;;;;;;;5054414;28;20386;-87
2022/05/18 04:58:33;;;;;;;4.63;3.92;;;;;;;;;;5054597;28;20369;-88
2022/05/18 05:01:01;;;;;;;4.40;4.00;;;;;;;;;;5054344;28;20381;-90
2022/05/18 05:03:27;;;;;;;6.18;3.92;;;;;;;;;;5054618;28;20385;-90
2022/05/18 05:05:54;;;;;;;4.40;4.00;;;;;;;;;;5053896;28;20739;-88
2022/05/18 05:08:20;;;;;;;4.22;3.50;;;;;;;;;;5054165;28;20805;-88
2022/05/18 05:10:46;;;;;;;4.30;3.90;;;;;;;;;;5054357;28;20405;-88
2022/05/18 05:13:12;;;;;;;4.28;3.70;;;;;;;;;;5054385;28;20476;-89
2022/05/18 05:15:38;;;;;;;4.55;3.90;;;;;;;;;;5053930;28;20709;-88
2022/05/18 05:18:04;;;;;;;4.23;3.83;;;;;;;;;;5053957;28;20516;-88
2022/05/18 05:20:30;;;;;;;3.95;3.55;;;;;;;;;;5054287;28;20382;-89
2022/05/18 05:22:56;;;;;;;5.17;3.33;;;;;;;;;;5056623;28;20378;-89
2022/05/18 05:25:22;;;;;;;4.13;3.72;;;;;;;;;;5053596;28;20396;-89
2022/05/18 05:27:48;;;;;;;4.22;3.83;;;;;;;;;;5053882;28;20374;-88
2022/05/18 05:30:14;;;;;;;4.10;3.70;;;;;;;;;;5054023;28;20381;-89
2022/05/18 05:32:41;;;;;;;3.97;3.35;;;;;;;;;;5053792;28;20373;-89
2022/05/18 05:35:08;;;;;;;4.00;3.60;;;;;;;;;;5053405;28;20435;-88
2022/05/18 05:37:34;;;;;;;3.90;3.50;;;;;;;;;;5054081;28;20378;-88
2022/05/18 05:40:00;;;;;;;3.85;3.55;;;;;;;;;;5056082;28;20385;-88
2022/05/18 05:42:26;;;;;;;3.65;3.35;;;;;;;;;;5053612;28;20389;-88
2022/05/18 05:44:52;;;;;;;3.77;3.47;;;;;;;;;;5068021;23;20509;-88
2022/05/18 05:47:18;;;;;;;4.00;3.50;;;;;;;;;;5035697;28;20400;-88
2022/05/18 05:49:44;;;;;;;4.60;3.70;;;;;;;;;;5035908;28;20385;-89
2022/05/18 05:52:11;;;;;;;4.43;4.03;;;;;;;;;;5035448;28;20409;-89
2022/05/18 05:54:37;;;;;;;4.10;3.70;;;;;;;;;;5035406;28;20519;-88
2022/05/18 05:57:04;;;;;;;4.10;3.47;;;;;;;;;;5045413;28;20390;-89
2022/05/18 05:59:34;;;;;;;4.88;3.90;;;;;;;;;;5033479;28;20436;-89
2022/05/18 06:02:01;;;;;;;4.40;4.00;;;;;;;;;;5033174;28;20390;-88
2022/05/18 06:04:29;;;;;;;4.95;3.80;;;;;;;;;;5033056;28;20376;-89
2022/05/18 06:06:55;;;;;;;4.40;3.78;;;;;;;;;;5035897;28;20396;-88
2022/05/18 06:09:21;;;;;;;4.30;3.90;;;;;;;;;;5033586;28;20379;-88
2022/05/18 06:11:48;;;;;;;5.25;3.83;;;;;;;;;;5032953;28;20403;-90
2022/05/18 06:14:14;;;;;;;4.68;4.05;;;;;;;;;;5032925;28;20387;-89
2022/05/18 06:16:41;;;;;;;4.40;3.90;;;;;;;;;;5033025;28;20427;-90
2022/05/18 06:19:07;;;;;;;4.70;4.20;;;;;;;;;;5033313;28;20433;-88
2022/05/18 06:21:33;;;;;;;4.43;4.00;;;;;;;;;;5033406;28;20442;-90
2022/05/18 06:23:59;;;;;;;4.78;4.25;;;;;;;;;;5032752;28;20383;-88
2022/05/18 06:26:26;;;;;;;4.97;4.07;;;;;;;;;;5032892;28;20470;-88
2022/05/18 06:28:52;;;;;;;5.55;4.30;;;;;;;;;;5033089;28;20379;-89
2022/05/18 06:31:19;;;;;;;6.63;4.28;;;;;;;;;;5032952;28;20769;-87
2022/05/18 06:33:45;;;;;;;4.65;4.22;;;;;;;;;;5032664;28;20375;-89
2022/05/18 06:36:11;;;;;;;4.32;4.00;;;;;;;;;;5032866;28;20379;-89
2022/05/18 06:38:37;;;;;;;5.50;4.53;;;;;;;;;;5032682;28;20383;-89
2022/05/18 06:41:22;;;;;;;4.88;4.05;;;;;;;;;;5032389;28;20382;-88
2022/05/18 06:43:49;;;;;;;4.90;4.50;;;;;;;;;;5032337;28;20429;-90
2022/05/18 06:46:15;;;;;;;5.70;4.45;;;;;;;;;;5032586;28;20482;-90
2022/05/18 06:48:41;;;;;;;4.72;4.25;;;;;;;;;;5032999;28;20391;-89
2022/05/18 06:51:07;;;;;;;4.70;4.20;;;;;;;;;;5032177;28;20529;-89
2022/05/18 06:53:33;;;;;;;4.57;4.15;;;;;;;;;;5031873;28;20383;-88
2022/05/18 06:55:59;;;;;;;4.75;4.30;;;;;;;;;;5032413;28;20375;-87
2022/05/18 06:58:26;;;;;;;6.07;4.07;;;;;;;;;;5032188;28;20394;-87
2022/05/18 07:00:52;;;;;;;4.93;3.92;;;;;;;;;;5032228;28;20379;-87
2022/05/18 07:03:18;;;;;;;4.55;4.15;;;;;;;;;;5032304;28;20756;-87
2022/05/18 07:05:44;;;;;;;4.30;3.90;;;;;;;;;;5032245;28;20386;-87
2022/05/18 07:08:10;;;;;;;5.00;3.97;;;;;;;;;;5032266;28;20387;-87
2022/05/18 07:10:36;;;;;;;4.95;4.07;;;;;;;;;;5032064;28;20532;-88
2022/05/18 07:13:04;;;;;;;4.78;4.07;;;;;;;;;;5032534;28;20800;-87
2022/05/18 07:15:30;;;;;;;5.03;4.32;;;;;;;;;;5032221;28;20868;-87
2022/05/18 07:17:56;;;;;;;4.60;4.20;;;;;;;;;;5032426;28;20467;-87
2022/05/18 07:20:22;;;;;;;5.93;3.97;;;;;;;;;;5032045;28;20805;-87
2022/05/18 07:22:48;;;;;;;4.43;4.05;;;;;;;;;;5043459;28;20457;-90
2022/05/18 07:25:14;;;;;;;4.55;4.15;;;;;;;;;;5052310;28;20386;-87
2022/05/18 07:27:41;;;;;;;4.88;4.28;;;;;;;;;;5051865;28;20373;-88
2022/05/18 07:30:07;;;;;;;7.50;4.25;;;;;;;;;;5051901;28;20395;-87
2022/05/18 07:32:33;;;;;;;4.50;4.00;;;;;;;;;;5051911;28;20401;-88
2022/05/18 07:34:59;;;;;;;4.57;4.05;;;;;;;;;;5051837;28;20388;-88
2022/05/18 07:37:26;;;;;;;5.40;4.00;;;;;;;;;;5051844;28;20749;-88
2022/05/18 07:39:52;;;;;;;6.53;4.05;;;;;;;;;;5052040;28;20747;-89
2022/05/18 07:42:18;;;;;;;6.30;3.80;;;;;;;;;;5051974;28;20460;-90
2022/05/18 07:44:45;;;;;;;4.35;3.95;;;;;;;;;;5051610;28;20758;-88
2022/05/18 07:47:11;;;;;;;4.30;3.90;;;;;;;;;;5054327;28;20421;-88
2022/05/18 07:49:38;;;;;;;8.38;6.65;;;;;;;;;;5051724;28;20385;-88
2022/05/18 07:52:05;;;;;;;4.63;4.22;;;;;;;;;;5052034;28;20496;-87
2022/05/18 07:54:32;;;;;;;4.45;4.03;;;;;;;;;;5051708;28;20385;-88
2022/05/18 07:56:58;;;;;;;4.22;3.83;;;;;;;;;;5051633;28;20409;-88
2022/05/18 07:59:25;;;;;;;4.10;3.70;;;;;;;;;;5051684;28;20373;-88
2022/05/18 08:01:51;;;;;;;4.72;3.88;;;;;;;;;;5051689;28;20391;-87
2022/05/18 08:04:17;;;;;;;4.30;3.90;;;;;;;;;;5052157;28;20383;-88
2022/05/18 08:06:44;;;;;;;5.95;4.13;;;;;;;;;;5035536;28;20852;-88
2022/05/18 08:09:11;;;;;;;6.00;4.25;;;;;;;;;;5017907;28;20399;-88
2022/05/18 08:17:07;;;;;;;14.43;4.37;;;;;;;;;;5035081;28;20413;-88
2022/05/18 08:19:33;;;;;;;4.30;3.90;;;;;;;;;;5035305;28;20374;-88
2022/05/18 08:21:59;;;;;;;5.50;4.10;;;;;;;;;;5035276;28;20920;-89
2022/05/18 08:24:26;;;;;;;4.32;3.80;;;;;;;;;;5035212;28;20389;-88
2022/05/18 08:26:52;;;;;;;3.87;3.10;;;;;;;;;;5034978;28;20851;-86
2022/05/18 08:29:19;;;;;;;4.07;3.08;;;;;;;;;;5035427;28;20884;-89
2022/05/18 08:31:45;;;;;;;5.30;4.20;;;;;;;;;;5034949;28;20411;-89
2022/05/18 08:34:12;;;;;;;4.63;3.28;;;;;;;;;;5034938;28;20873;-88
2022/05/18 08:36:39;;;;;;;4.15;3.05;;;;;;;;;;5034761;28;20445;-88
2022/05/18 08:39:05;;;;;;;3.10;2.80;;;;;;;;;;5035212;28;20387;-87
2022/05/18 08:41:35;;;;;;;3.65;2.83;;;;;;;;;;5035020;28;20469;-88
2022/05/18 08:44:06;;;;;;;5.03;3.10;;;;;;;;;;5034637;28;20489;-88
2022/05/18 08:46:52;;;;;;;6.30;2.95;;;;;;;;;;5035132;28;20398;-88
2022/05/18 08:49:39;;;;;;;4.47;2.92;;;;;;;;;;5035215;28;20403;-88
2022/05/18 08:52:24;;;;;;;4.07;2.83;;;;;;;;;;5034935;28;20403;-88
2022/05/18 08:54:51;;;;;;;6.28;3.17;;;;;;;;;;5034360;28;20375;-88
2022/05/18 08:57:17;;;;;;;4.57;2.50;;;;;;;;;;5034953;28;20780;-88
2022/05/18 08:59:44;;;;;;;4.13;2.65;;;;;;;;;;5034809;28;20732;-87
2022/05/18 09:02:15;;;;;;;6.80;2.70;;;;;;;;;;5034801;28;20383;-87
2022/05/18 09:04:45;;;;;;;5.32;2.88;;;;;;;;;;5034266;28;20383;-88
2022/05/18 09:07:13;;;;;;;5.97;2.67;;;;;;;;;;5034584;28;20383;-87
2022/05/18 09:12:34;;;;;;;5.50;2.80;;;;;;;;;;5034209;28;20418;-87
2022/05/18 09:15:03;;;;;;;4.40;2.53;;;;;;;;;;5033673;28;21004;-87
2022/05/18 09:17:38;;;;;;;4.63;2.42;;;;;;;;;;5034265;28;20379;-87
2022/05/18 09:20:12;;;;;;;2.83;2.47;;;;;;;;;;5034098;28;20378;-87
2022/05/18 09:22:44;;;;;;;4.88;2.72;;;;;;;;;;5033954;28;20379;-87
2022/05/18 09:25:30;;;;;;;4.03;2.30;;;;;;;;;;5052732;28;20385;-87
2022/05/18 09:27:56;;;;;;;3.42;2.17;;;;;;;;;;5053991;28;20409;-87
2022/05/18 09:30:41;;;;;;;3.30;2.33;;;;;;;;;;5053976;28;20377;-87
2022/05/18 09:33:26;;;;;;;7.22;2.50;;;;;;;;;;5053682;28;20386;-87
2022/05/18 09:35:56;;;;;;;4.22;2.47;;;;;;;;;;5053665;28;20762;-87
2022/05/18 09:38:35;;;;;;;3.75;2.40;;;;;;;;;;5053776;28;20449;-90
2022/05/18 09:41:05;;;;;;;3.17;1.80;;;;;;;;;;5035660;28;20886;-88
2022/05/18 09:43:32;;;;;;;3.77;2.03;;;;;;;;;;5053556;28;20381;-88
2022/05/18 09:45:58;;;;;;;3.05;1.88;;;;;;;;;;5053486;28;20389;-87
2022/05/18 09:48:35;;;;;;;6.22;2.30;;;;;;;;;;5053621;28;20388;-89
2022/05/18 09:51:01;;;;;;;3.07;1.90;;;;;;;;;;5053416;28;20933;-87
2022/05/18 09:53:28;;;;;;;3.45;2.05;;;;;;;;;;5053869;28;20377;-88
2022/05/18 09:55:55;;;;;;;3.65;1.90;;;;;;;;;;5055400;28;20424;-87
2022/05/18 09:58:31;;;;;;;2.67;1.63;;;;;;;;;;5053400;28;20377;-88
2022/05/18 10:09:49;;;;;;;2.70;1.80;;;;;;;;;;5033689;28;20389;-88
2022/05/18 10:12:15;;;;;;;4.47;2.30;;;;;;;;;;5032989;28;20541;-88
2022/05/18 10:14:42;;;;;;;3.92;2.05;;;;;;;;;;5033078;28;20714;-89
2022/05/18 10:17:10;;;;;;;3.22;1.90;;;;;;;;;;5033378;28;20445;-88
2022/05/18 10:19:43;;;;;;;3.10;1.73;;;;;;;;;;5033192;28;20795;-88
2022/05/18 10:22:12;;;;;;;3.47;1.67;;;;;;;;;;5032903;28;20466;-89
2022/05/18 10:24:41;;;;;;;4.47;1.87;;;;;;;;;;5032966;28;20399;-88
2022/05/18 10:27:17;;;;;;;3.47;1.77;;;;;;;;;;5032088;28;20863;-88
2022/05/18 10:30:08;;;;;;;1.90;1.60;;;;;;;;;;5032671;28;20473;-87
2022/05/18 10:32:35;;;;;;;2.03;1.67;;;;;;;;;;4988675;28;20834;-88
2022/05/18 10:35:02;;;;;;;3.85;1.80;;;;;;;;;;5032907;28;20852;-87
2022/05/18 10:37:30;;;;;;;3.97;2.20;;;;;;;;;;5033003;28;20387;-87
2022/05/18 10:40:01;;;;;;;2.10;1.90;;;;;;;;;;5032642;28;20390;-88
2022/05/18 10:42:48;;;;;;;2.85;1.80;;;;;;;;;;5033027;28;20406;-87
2022/05/18 10:45:27;;;;;;;2.88;1.90;;;;;;;;;;5032486;28;20427;-88
2022/05/18 10:48:14;;;;;;;3.95;1.90;;;;;;;;;;5032904;28;20395;-88
2022/05/18 10:50:41;;;;;;;3.20;1.90;;;;;;;;;;5032096;28;20387;-88
2022/05/18 10:53:13;;;;;;;2.65;1.75;;;;;;;;;;5033155;28;20780;-88
2022/05/18 10:55:58;;;;;;;2.38;1.80;;;;;;;;;;5032436;28;20372;-88
2022/05/18 10:58:31;;;;;;;3.43;1.97;;;;;;;;;;5032254;28;20375;-88
2022/05/18 11:01:07;;;;;;;1.80;1.70;;;;;;;;;;5032469;28;20389;-87
2022/05/18 11:03:33;;;;;;;3.72;2.08;;;;;;;;;;5032546;28;20466;-88
2022/05/18 11:06:02;;;;;;;2.92;1.75;;;;;;;;;;5032383;28;20813;-88
2022/05/18 11:08:31;;;;;;;3.15;2.30;;;;;;;;;;5032320;28;20407;-87
2022/05/18 11:11:16;;;;;;;2.35;1.85;;;;;;;;;;5032290;28;20403;-88
2022/05/18 11:13:46;;;;;;;3.45;1.83;;;;;;;;;;5032263;28;20880;-88
2022/05/18 11:16:23;;;;;;;3.72;1.77;;;;;;;;;;5032347;28;20390;-88
2022/05/18 11:18:55;;;;;;;2.30;1.65;;;;;;;;;;5032101;28;20371;-88
2022/05/18 11:21:27;;;;;;;2.00;1.50;;;;;;;;;;5032261;28;20394;-87
2022/05/18 11:23:53;;;;;;;2.80;1.60;;;;;;;;;;5032441;28;20387;-88
2022/05/18 11:26:38;;;;;;;2.20;1.50;;;;;;;;;;5032363;28;20390;-88
2022/05/18 11:29:16;;;;;;;1.90;1.60;;;;;;;;;;5033203;28;20868;-88
2022/05/18 11:31:42;;;;;;;3.60;1.60;;;;;;;;;;5068658;28;20483;-88
2022/05/18 11:34:21;;;;;;;3.27;1.50;;;;;;;;;;5072055;28;20412;-87
2022/05/18 11:36:56;;;;;;;4.20;1.58;;;;;;;;;;5072083;28;20367;-87
2022/05/18 11:39:22;;;;;;;2.88;1.50;;;;;;;;;;5074898;28;20375;-88
2022/05/18 11:41:48;;;;;;;1.63;1.30;;;;;;;;;;5076064;28;20475;-88
2022/05/18 11:44:25;;;;;;;1.80;1.33;;;;;;;;;;5076115;28;20418;-86
2022/05/18 11:47:03;;;;;;;2.10;1.40;;;;;;;;;;5075829;28;20449;-87
2022/05/18 11:49:32;;;;;;;1.80;1.30;;;;;;;;;;5075856;28;20829;-89
2022/05/18 11:51:58;;;;;;;2.07;1.33;;;;;;;;;;5076318;28;20399;-88
2022/05/18 11:54:57;;;;;;;1.30;1.20;;;;;;;;;;5075798;28;20376;-88
2022/05/18 11:57:29;;;;;;;1.48;1.20;;;;;;;;;;5021464;28;20736;-88
2022/05/18 12:00:46;;;;;;;3.47;1.40;;;;;;;;;;5036087;28;20376;-88
2022/05/18 12:03:15;;;;;;;2.28;1.50;;;;;;;;;;4974970;28;20400;-89
2022/05/18 12:05:41;;;;;;;2.00;1.27;;;;;;;;;;5031510;28;20395;-89
2022/05/18 12:08:24;;;;;;;1.42;1.10;;;;;;;;;;5054674;28;20377;-87
2022/05/18 12:10:51;;;;;;;2.00;1.17;;;;;;;;;;5055737;28;20444;-87
2022/05/18 12:13:17;;;;;;;1.35;1.25;;;;;;;;;;5055567;28;20381;-88
2022/05/18 12:15:43;;;;;;;3.40;1.48;;;;;;;;;;5055092;28;20874;-89
2022/05/18 12:18:14;;;;;;;2.13;1.40;;;;;;;;;;5055392;28;20389;-88
2022/05/18 12:20:45;;;;;;;1.83;1.30;;;;;;;;;;5055365;28;20377;-88
2022/05/18 12:23:12;;;;;;;2.05;1.27;;;;;;;;;;5055244;28;20477;-88
2022/05/18 12:25:39;;;;;;;3.42;1.23;;;;;;;;;;5055006;28;20378;-89
2022/05/18 12:28:07;;;;;;;1.50;1.20;;;;;;;;;;5055229;28;20404;-88
2022/05/18 12:30:34;;;;;;;2.00;1.40;;;;;;;;;;5055259;28;20378;-88
2022/05/18 12:33:02;;;;;;;3.28;1.10;;;;;;;;;;5055029;28;20378;-88
2022/05/18 12:35:58;;;;;;;1.80;1.30;;;;;;;;;;5055087;28;20378;-87
2022/05/18 12:38:24;;;;;;;1.58;1.20;;;;;;;;;;5046061;28;20425;-89
2022/05/18 12:40:56;;;;;;;1.30;1.00;;;;;;;;;;5055158;28;20440;-88
2022/05/18 12:43:28;;;;;;;2.25;1.05;;;;;;;;;;5054811;28;21054;-87
2022/05/18 12:46:17;;;;;;;1.80;1.02;;;;;;;;;;5036772;28;20393;-89
2022/05/18 12:48:43;;;;;;;2.13;1.00;;;;;;;;;;5054609;28;20382;-89
2022/05/18 12:51:27;;;;;;;1.65;1.00;;;;;;;;;;5053738;28;20471;-89
2022/05/18 12:53:53;;;;;;;2.10;1.10;;;;;;;;;;5054602;28;20468;-89
2022/05/18 12:56:24;;;;;;;2.17;1.13;;;;;;;;;;5054922;28;20412;-88
2022/05/18 12:58:54;;;;;;;3.90;1.20;;;;;;;;;;5054862;28;20385;-87
2022/05/18 13:01:22;;;;;;;1.37;1.10;;;;;;;;;;5054548;28;20377;-88
2022/05/18 13:04:11;;;;;;;2.25;1.10;;;;;;;;;;5054269;28;20388;-88
2022/05/18 13:06:39;;;;;;;1.27;0.90;;;;;;;;;;5035625;28;20480;-87
2022/05/18 13:09:23;;;;;;;1.50;0.98;;;;;;;;;;5054707;28;20431;-89
2022/05/18 13:12:08;;;;;;;3.63;1.00;;;;;;;;;;5054236;28;20465;-88
2022/05/18 13:14:43;;;;;;;2.33;1.20;;;;;;;;;;5054260;28;20715;-89
2022/05/18 13:17:11;;;;;;;2.47;1.05;;;;;;;;;;5054269;28;20444;-88
2022/05/18 13:19:37;;;;;;;2.07;1.20;;;;;;;;;;5036391;28;20822;-88
2022/05/18 13:22:12;;;;;;;1.38;0.95;;;;;;;;;;5054084;28;20720;-88
2022/05/18 13:24:40;;;;;;;3.80;1.10;;;;;;;;;;5054152;28;20862;-88
2022/05/18 13:27:26;;;;;;;1.10;1.00;;;;;;;;;;5053960;28;20388;-88
2022/05/18 13:29:53;;;;;;;1.55;1.00;;;;;;;;;;5055569;28;20385;-88
2022/05/18 13:32:20;;;;;;;1.35;1.00;;;;;;;;;;5053766;28;20486;-87
2022/05/18 13:35:01;;;;;;;1.75;0.80;;;;;;;;;;5053881;28;20468;-88
2022/05/18 13:37:28;;;;;;;3.50;1.10;;;;;;;;;;5053873;28;20829;-89
2022/05/18 13:39:55;;;;;;;1.50;1.10;;;;;;;;;;5053861;28;20793;-88
2022/05/18 13:42:27;;;;;;;1.52;0.90;;;;;;;;;;5053860;28;20805;-88
2022/05/18 13:44:55;;;;;;;2.70;1.00;;;;;;;;;;5053502;28;20404;-90
2022/05/18 13:47:41;;;;;;;6.28;0.90;;;;;;;;;;5053869;28;20465;-88
2022/05/18 13:50:10;;;;;;;2.58;1.00;;;;;;;;;;5053231;28;20432;-88
2022/05/18 13:52:42;;;;;;;2.10;0.90;;;;;;;;;;5053512;28;20405;-87
2022/05/18 13:55:09;;;;;;;1.43;1.17;;;;;;;;;;5054303;28;20761;-87
2022/05/18 13:57:39;;;;;;;1.60;0.90;;;;;;;;;;5038212;28;20750;-88
2022/05/18 14:00:07;;;;;;;2.17;1.00;;;;;;;;;;5034785;28;20381;-88
2022/05/18 14:02:34;;;;;;;1.73;0.80;;;;;;;;;;5034127;28;20476;-88
2022/05/18 14:05:07;;;;;;;1.40;0.80;;;;;;;;;;5033306;28;20382;-88
2022/05/18 14:07:37;;;;;;;1.70;0.80;;;;;;;;;;5050625;28;20377;-88
2022/05/18 14:10:05;;;;;;;2.75;0.82;;;;;;;;;;5052964;28;20417;-87
2022/05/18 14:12:31;;;;;;;2.63;0.80;;;;;;;;;;5053432;28;20751;-87
2022/05/18 14:14:57;;;;;;;1.30;0.67;;;;;;;;;;5053018;28;20746;-87
2022/05/18 14:17:25;;;;;;;2.45;0.80;;;;;;;;;;5053100;28;20437;-88
2022/05/18 14:20:01;;;;;;;4.70;1.00;;;;;;;;;;5052828;28;20374;-89
2022/05/18 14:22:31;;;;;;;1.50;0.73;;;;;;;;;;5053143;28;20385;-89
2022/05/18 14:25:16;;;;;;;1.38;0.80;;;;;;;;;;5052885;28;20452;-88
2022/05/18 14:27:47;;;;;;;1.10;0.80;;;;;;;;;;5053290;28;20376;-89
2022/05/18 14:30:16;;;;;;;2.83;0.80;;;;;;;;;;5052668;28;20392;-89
2022/05/18 14:32:55;;;;;;;2.95;1.00;;;;;;;;;;5052700;28;20405;-89
2022/05/18 14:35:23;;;;;;;1.60;0.80;;;;;;;;;;5053071;28;20726;-89
2022/05/18 14:37:51;;;;;;;1.75;0.90;;;;;;;;;;5052438;28;20369;-89
2022/05/18 14:40:20;;;;;;;2.28;1.00;;;;;;;;;;5052665;28;20378;-89
2022/05/18 14:42:48;;;;;;;1.98;0.80;;;;;;;;;;5052888;28;20385;-89
2022/05/18 14:45:23;;;;;;;1.10;0.88;;;;;;;;;;5052554;28;20405;-89
2022/05/18 14:47:54;;;;;;;1.20;1.10;;;;;;;;;;5052364;28;20387;-88
2022/05/18 14:50:39;;;;;;;1.13;1.02;;;;;;;;;;5052549;28;20476;-89
2022/05/18 14:53:08;;;;;;;2.35;1.02;;;;;;;;;;5052706;28;20385;-90
2022/05/18 14:55:51;;;;;;;3.03;0.90;;;;;;;;;;5034757;28;20377;-89
2022/05/18 14:58:44;;;;;;;1.00;0.90;;;;;;;;;;5052205;28;20446;-89
2022/05/18 15:01:17;;;;;;;1.60;0.93;;;;;;;;;;5048733;28;20388;-90
2022/05/18 15:03:44;;;;;;;2.60;1.02;;;;;;;;;;5052585;28;20382;-89
2022/05/18 15:06:11;;;;;;;2.80;1.08;;;;;;;;;;5052479;28;20740;-90
2022/05/18 15:08:51;;;;;;;1.65;1.10;;;;;;;;;;5052165;28;20389;-91
2022/05/18 15:11:19;;;;;;;1.63;1.10;;;;;;;;;;5052311;28;20402;-91
2022/05/18 15:13:50;;;;;;;2.27;1.03;;;;;;;;;;5051651;28;20385;-89
2022/05/18 15:16:17;;;;;;;2.05;1.10;;;;;;;;;;5051917;28;20381;-89
2022/05/18 15:18:54;;;;;;;3.42;1.00;;;;;;;;;;5052183;28;20378;-90